createdAt,value
2022-10-25T00:00:15.261Z,96.01
2022-10-25T00:02:45.098Z,96.68
2022-10-25T00:05:16.568Z,96.71
2022-10-25T00:07:46.932Z,96.01
2022-10-25T00:10:22.243Z,96.06
2022-10-25T00:12:55.246Z,96.38
2022-10-25T00:15:25.377Z,96.89
2022-10-25T00:17:55.599Z,96.25
2022-10-25T00:20:25.327Z,97.05
2022-10-25T00:22:55.070Z,96.88
2022-10-25T00:25:27.336Z,97.31
2022-10-25T00:27:57.060Z,97.98
2022-10-25T00:30:26.733Z,97.68
2022-10-25T00:32:56.480Z,97.88
2022-10-25T00:35:26.207Z,98.24
2022-10-25T00:37:55.891Z,96.85
2022-10-25T00:40:28.335Z,96.33
2022-10-25T00:42:57.981Z,96.38
2022-10-25T00:45:29.236Z,96.29
2022-10-25T00:48:03.547Z,96.87
2022-10-25T00:50:42.869Z,96.19
2022-10-25T00:53:16.822Z,96.19
2022-10-25T00:55:54.679Z,95.77
2022-10-25T00:58:29.011Z,96.22
2022-10-25T01:00:59.615Z,96.77
2022-10-25T01:03:29.457Z,96.53
2022-10-25T01:06:02.683Z,95.79
2022-10-25T01:08:32.471Z,96.09
2022-10-25T01:11:05.020Z,95.43
2022-10-25T01:13:34.667Z,95.64
2022-10-25T01:16:14.341Z,95.56
2022-10-25T01:18:51.247Z,95.66
2022-10-25T01:21:48.712Z,95.28
2022-10-25T01:24:50.667Z,95.84
2022-10-25T01:31:12.562Z,95.85
2022-10-25T01:33:47.570Z,96.61
2022-10-25T01:36:24.834Z,96.37
2022-10-25T01:39:02.156Z,97.16
2022-10-25T01:41:39.344Z,96.89
2022-10-25T01:44:23.627Z,97.21
2022-10-25T01:46:59.364Z,96.94
2022-10-25T01:49:37.923Z,97.22
2022-10-25T01:52:07.718Z,97.55
2022-10-25T01:54:37.499Z,96.57
2022-10-25T01:57:29.751Z,96.56
2022-10-25T02:00:08.208Z,97.26
2022-10-25T02:02:49.047Z,96.92
2022-10-25T02:05:24.077Z,96.87
2022-10-25T02:08:02.198Z,97.39
2022-10-25T02:10:39.445Z,97.22
2022-10-25T02:13:19.413Z,97.38
2022-10-25T02:15:59.073Z,97.80
2022-10-25T02:18:33.919Z,97.38
2022-10-25T02:21:04.871Z,97.37
2022-10-25T02:23:37.468Z,97.63
2022-10-25T02:26:10.935Z,97.75
2022-10-25T02:28:42.987Z,98.26
2022-10-25T02:31:18.083Z,97.34
2022-10-25T02:33:50.899Z,96.34
2022-10-25T02:36:23.874Z,96.93
2022-10-25T02:38:55.081Z,96.91
2022-10-25T02:41:25.596Z,96.76
2022-10-25T02:43:55.372Z,96.25
2022-10-25T02:46:26.454Z,97.20
2022-10-25T02:48:58.673Z,96.58
2022-10-25T02:51:28.680Z,96.90
2022-10-25T02:53:58.360Z,96.21
2022-10-25T02:56:28.131Z,96.73
2022-10-25T02:59:00.017Z,97.17
2022-10-25T03:01:29.908Z,97.79
2022-10-25T03:04:02.315Z,97.83
2022-10-25T03:06:32.402Z,97.34
2022-10-25T03:09:02.268Z,97.43
2022-10-25T03:11:31.975Z,97.78
2022-10-25T03:14:01.692Z,97.21
2022-10-25T03:16:31.498Z,96.23
2022-10-25T03:19:03.859Z,97.11
2022-10-25T03:21:35.573Z,97.15
2022-10-25T03:24:07.816Z,96.65
2022-10-25T03:26:37.560Z,96.46
2022-10-25T03:29:07.215Z,97.40
2022-10-25T03:31:37.070Z,97.02
2022-10-25T03:34:09.312Z,96.92
2022-10-25T03:36:39.031Z,96.25
2022-10-25T03:39:08.662Z,96.20
2022-10-25T03:41:38.413Z,96.11
2022-10-25T03:44:08.313Z,96.05
2022-10-25T03:46:38.046Z,96.79
2022-10-25T03:49:10.351Z,97.74
2022-10-25T03:51:40.064Z,96.50
2022-10-25T03:54:09.853Z,96.94
2022-10-25T03:56:39.542Z,97.81
2022-10-25T03:59:09.334Z,96.96
2022-10-25T04:01:39.180Z,96.52
2022-10-25T04:04:11.562Z,97.44
2022-10-25T04:06:41.257Z,96.81
2022-10-25T04:09:11.081Z,97.04
2022-10-25T04:11:40.755Z,98.03
2022-10-25T04:14:10.469Z,97.52
2022-10-25T04:16:40.254Z,97.70
2022-10-25T04:19:12.612Z,98.26
2022-10-25T04:21:42.265Z,98.34
2022-10-25T04:24:12.761Z,98.62
2022-10-25T04:26:42.866Z,97.94
2022-10-25T04:29:14.511Z,97.34
2022-10-25T04:31:44.244Z,98.42
2022-10-25T04:34:16.634Z,97.90
2022-10-25T04:36:46.228Z,97.42
2022-10-25T04:39:15.925Z,98.10
2022-10-25T04:41:45.523Z,98.70
2022-10-25T04:44:15.110Z,98.00
2022-10-25T04:46:46.493Z,97.76
2022-10-25T04:49:21.103Z,98.37
2022-10-25T04:54:21.316Z,97.93
2022-10-25T04:56:50.873Z,98.19
2022-10-25T04:59:20.535Z,98.25
2022-10-25T05:04:42.231Z,98.04
2022-10-25T05:07:11.914Z,97.69
2022-10-25T05:09:43.905Z,97.42
2022-10-25T05:12:16.950Z,97.45
2022-10-25T05:14:46.896Z,97.35
2022-10-25T05:17:16.632Z,97.93
2022-10-25T05:19:48.967Z,96.89
2022-10-25T05:22:18.675Z,97.36
2022-10-25T05:24:48.426Z,98.06
2022-10-25T05:27:18.421Z,98.44
2022-10-25T05:29:48.236Z,98.24
2022-10-25T05:32:17.879Z,98.46
2022-10-25T05:34:50.206Z,98.18
2022-10-25T05:37:19.879Z,98.25
2022-10-25T05:39:49.728Z,98.38
2022-10-25T05:42:19.462Z,99.57
2022-10-25T05:44:49.179Z,97.93
2022-10-25T05:47:18.956Z,98.15
2022-10-25T05:49:51.225Z,98.42
2022-10-25T05:52:20.910Z,98.47
2022-10-25T05:54:50.549Z,97.10
2022-10-25T05:57:20.599Z,97.57
2022-10-25T05:59:50.273Z,98.18
2022-10-25T06:02:20.014Z,98.74
2022-10-25T06:04:52.610Z,97.60
2022-10-25T06:07:22.567Z,98.63
2022-10-25T06:09:52.270Z,98.66
2022-10-25T06:12:21.967Z,98.42
2022-10-25T06:14:51.650Z,96.63
2022-10-25T06:17:21.386Z,96.63
2022-10-25T06:19:53.678Z,96.01
2022-10-25T06:22:23.430Z,96.74
2022-10-25T06:24:53.101Z,97.07
2022-10-25T06:27:22.814Z,97.32
2022-10-25T06:29:52.531Z,96.31
2022-10-25T06:32:22.234Z,95.36
2022-10-25T06:34:54.500Z,96.21
2022-10-25T06:37:24.252Z,96.32
2022-10-25T06:39:53.970Z,95.88
2022-10-25T06:42:23.753Z,95.06
2022-10-25T06:44:53.700Z,96.42
2022-10-25T06:47:23.450Z,96.24
2022-10-25T06:49:55.716Z,96.90
2022-10-25T06:52:25.420Z,96.23
2022-10-25T06:54:55.053Z,95.89
2022-10-25T06:57:24.726Z,94.24
2022-10-25T06:59:54.450Z,94.75
2022-10-25T07:02:24.354Z,94.97
2022-10-25T07:04:56.768Z,94.63
2022-10-25T07:07:26.412Z,94.83
2022-10-25T07:09:56.078Z,94.52
2022-10-25T07:12:25.731Z,94.56
2022-10-25T07:14:55.319Z,93.80
2022-10-25T07:17:25.146Z,93.86
2022-10-25T07:19:58.173Z,94.03
2022-10-25T07:22:28.674Z,93.13
2022-10-25T07:24:58.487Z,93.40
2022-10-25T07:27:28.439Z,92.77
2022-10-25T07:29:58.111Z,91.86
2022-10-25T07:32:28.207Z,91.38
2022-10-25T07:35:00.632Z,90.51
2022-10-25T07:37:30.465Z,89.47
2022-10-25T07:40:00.113Z,89.49
2022-10-25T07:42:29.853Z,89.94
2022-10-25T07:44:59.536Z,88.94
2022-10-25T07:47:29.224Z,88.76
2022-10-25T07:50:01.518Z,86.95
2022-10-25T07:52:31.299Z,87.50
2022-10-25T07:55:00.978Z,87.21
2022-10-25T07:57:30.723Z,86.77
2022-10-25T08:00:00.882Z,85.59
2022-10-25T08:02:30.563Z,85.70
2022-10-25T08:05:02.790Z,85.43
2022-10-25T08:07:32.442Z,83.65
2022-10-25T08:10:02.081Z,82.46
2022-10-25T08:12:31.770Z,79.07
2022-10-25T08:15:01.521Z,79.15
2022-10-25T08:17:31.220Z,76.86
2022-10-25T08:20:03.662Z,71.51
2022-10-25T08:22:33.415Z,64.46
2022-10-25T08:25:05.347Z,58.69
2022-10-25T08:27:35.926Z,53.43
2022-10-25T08:30:05.664Z,50.71
2022-10-25T08:32:35.360Z,50.38
2022-10-25T08:35:08.238Z,49.52
2022-10-25T08:37:38.032Z,49.48
2022-10-25T08:40:09.660Z,50.87
2022-10-25T08:42:49.871Z,53.67
2022-10-25T08:45:24.298Z,56.90
2022-10-25T08:47:57.060Z,59.91
2022-10-25T08:50:40.991Z,61.91
2022-10-25T08:53:19.561Z,62.72
2022-10-25T08:56:11.595Z,62.50
2022-10-25T08:58:46.459Z,62.92
2022-10-25T09:01:19.535Z,64.56
2022-10-25T09:03:49.373Z,65.20
2022-10-25T09:06:31.970Z,65.42
2022-10-25T09:09:10.426Z,66.48
2022-10-25T09:11:56.408Z,68.20
2022-10-25T09:14:34.976Z,68.54
2022-10-25T09:17:15.231Z,67.40
2022-10-25T09:19:57.575Z,67.00
2022-10-25T09:22:32.581Z,68.07
2022-10-25T09:25:05.904Z,68.79
2022-10-25T09:27:38.898Z,69.00
2022-10-25T09:30:11.749Z,68.87
2022-10-25T09:32:43.509Z,69.48
2022-10-25T09:35:19.753Z,69.09
2022-10-25T09:37:56.142Z,68.81
2022-10-25T09:40:28.750Z,68.61
2022-10-25T09:43:00.889Z,68.41
2022-10-25T09:45:42.074Z,69.83
2022-10-25T09:48:18.292Z,69.85
2022-10-25T09:50:53.412Z,70.86
2022-10-25T09:53:25.695Z,71.45
2022-10-25T09:55:57.343Z,72.09
2022-10-25T09:58:30.585Z,70.71
2022-10-25T10:01:04.224Z,67.99
2022-10-25T10:03:37.091Z,66.21
2022-10-25T10:06:17.743Z,63.44
2022-10-25T10:08:53.235Z,59.29
2022-10-25T10:11:24.740Z,56.74
2022-10-25T10:14:00.129Z,54.58
2022-10-25T10:16:35.703Z,53.00
2022-10-25T10:19:18.508Z,51.85
2022-10-25T10:21:50.512Z,50.11
2022-10-25T10:24:25.230Z,49.37
2022-10-25T10:27:08.701Z,48.03
2022-10-25T10:29:40.332Z,50.97
2022-10-25T10:32:26.956Z,55.46
2022-10-25T10:35:01.560Z,55.89
2022-10-25T10:37:32.628Z,51.45
2022-10-25T10:40:07.088Z,48.48
2022-10-25T10:42:41.382Z,46.15
2022-10-25T10:45:19.940Z,43.02
2022-10-25T10:47:59.734Z,41.57
2022-10-25T10:50:32.906Z,39.05
2022-10-25T10:53:06.144Z,38.78
2022-10-25T10:55:39.949Z,39.13
2022-10-25T10:58:16.637Z,37.22
2022-10-25T11:00:53.423Z,36.93
2022-10-25T11:03:53.469Z,37.76
2022-10-25T11:06:32.533Z,35.94
2022-10-25T11:09:17.018Z,36.83
2022-10-25T11:12:08.932Z,36.73
2022-10-25T11:14:38.733Z,37.48
2022-10-25T11:17:17.057Z,37.43
2022-10-25T11:20:02.371Z,34.77
2022-10-25T11:22:50.887Z,33.97
2022-10-25T11:25:33.297Z,33.42
2022-10-25T11:28:20.708Z,33.56
2022-10-25T11:31:00.317Z,32.51
2022-10-25T11:33:45.182Z,31.78
2022-10-25T11:36:45.382Z,32.20
2022-10-25T11:39:28.898Z,31.43
2022-10-25T11:42:07.658Z,31.40
2022-10-25T11:45:12.284Z,30.84
2022-10-25T11:47:50.277Z,31.53
2022-10-25T11:50:28.530Z,31.17
2022-10-25T11:53:28.794Z,31.83
2022-10-25T11:56:03.638Z,31.86
2022-10-25T11:58:48.212Z,31.13
2022-10-25T12:01:34.417Z,31.15
2022-10-25T12:04:26.955Z,33.95
2022-10-25T12:07:07.301Z,33.36
2022-10-25T12:09:48.075Z,37.16
2022-10-25T12:12:21.437Z,37.79
2022-10-25T12:14:55.394Z,41.99
2022-10-25T12:17:31.733Z,44.56
2022-10-25T12:20:04.830Z,47.91
2022-10-25T12:22:41.348Z,51.59
2022-10-25T12:25:21.124Z,54.70
2022-10-25T12:27:56.471Z,59.15
2022-10-25T12:33:28.815Z,62.71
2022-10-25T12:36:04.506Z,63.79
2022-10-25T12:38:38.014Z,64.01
2022-10-25T12:41:12.788Z,63.49
2022-10-25T12:43:54.349Z,65.37
2022-10-25T12:46:50.709Z,65.15
2022-10-25T12:49:51.039Z,66.86
2022-10-25T12:52:42.261Z,66.17
2022-10-25T12:55:31.327Z,65.74
2022-10-25T12:58:20.209Z,67.00
2022-10-25T13:01:05.737Z,67.64
2022-10-25T13:03:58.106Z,66.37
2022-10-25T13:06:37.170Z,64.35
2022-10-25T13:09:10.883Z,65.41
2022-10-25T13:11:44.501Z,64.07
2022-10-25T13:14:24.312Z,63.49
2022-10-25T13:16:53.976Z,65.05
2022-10-25T13:19:53.685Z,64.87
2022-10-25T13:22:43.821Z,66.41
2022-10-25T13:25:21.385Z,67.26
2022-10-25T13:28:21.034Z,67.28
2022-10-25T13:30:50.671Z,67.19
2022-10-25T13:33:33.835Z,66.95
2022-10-25T13:36:09.470Z,66.92
2022-10-25T13:38:41.951Z,68.39
2022-10-25T13:41:17.055Z,69.02
2022-10-25T13:44:01.372Z,69.35
2022-10-25T13:46:35.499Z,68.72
2022-10-25T13:49:28.090Z,71.08
2022-10-25T13:51:59.046Z,72.17
2022-10-25T13:54:41.286Z,69.79
2022-10-25T13:57:50.344Z,71.04
2022-10-25T14:00:37.431Z,71.85
2022-10-25T14:03:29.271Z,70.56
2022-10-25T14:06:25.664Z,69.68
2022-10-25T14:09:16.347Z,69.99
2022-10-25T14:11:52.851Z,70.39
2022-10-25T14:14:30.482Z,71.00
2022-10-25T14:17:11.737Z,70.53
2022-10-25T14:19:45.833Z,69.10
2022-10-25T14:22:18.944Z,70.72
2022-10-25T14:24:52.920Z,71.68
2022-10-25T14:27:36.676Z,71.81
2022-10-25T14:30:26.449Z,70.80
2022-10-25T14:32:58.501Z,72.75
2022-10-25T14:35:34.457Z,71.82
2022-10-25T14:38:05.435Z,71.46
2022-10-25T14:40:35.334Z,72.29
2022-10-25T14:43:36.046Z,72.85
2022-10-25T14:46:15.572Z,69.56
2022-10-25T14:48:47.883Z,71.60
2022-10-25T14:51:22.931Z,72.02
2022-10-25T14:53:58.656Z,72.22
2022-10-25T14:56:32.125Z,71.91
2022-10-25T14:59:05.906Z,73.02
2022-10-25T15:01:36.755Z,71.98
2022-10-25T15:04:06.811Z,73.14
2022-10-25T15:06:36.636Z,74.49
2022-10-25T15:09:41.206Z,75.46
2022-10-25T15:12:18.090Z,75.83
2022-10-25T15:14:51.126Z,76.01
2022-10-25T15:17:27.512Z,76.76
2022-10-25T15:20:08.853Z,77.71
2022-10-25T15:22:46.659Z,76.52
2022-10-25T15:25:22.223Z,76.46
2022-10-25T15:27:54.761Z,78.54
2022-10-25T15:30:41.521Z,77.80
2022-10-25T15:33:14.428Z,78.24
2022-10-25T15:35:50.282Z,80.05
2022-10-25T15:38:20.713Z,80.69
2022-10-25T15:40:52.008Z,81.07
2022-10-25T15:43:21.754Z,81.54
2022-10-25T15:45:54.290Z,81.38
2022-10-25T15:48:27.696Z,82.89
2022-10-25T15:50:59.217Z,81.93
2022-10-25T15:53:28.856Z,81.66
2022-10-25T15:55:58.490Z,82.59
2022-10-25T15:58:28.676Z,83.11
2022-10-25T16:01:01.088Z,83.63
2022-10-25T16:03:30.729Z,84.09
2022-10-25T16:06:00.358Z,84.58
2022-10-25T16:08:30.112Z,85.06
2022-10-25T16:11:00.486Z,85.97
2022-10-25T16:13:35.675Z,86.36
2022-10-25T16:16:34.829Z,86.30
2022-10-25T16:19:01.171Z,87.10
2022-10-25T16:21:33.240Z,87.04
2022-10-25T16:24:02.904Z,87.54
2022-10-25T16:26:38.039Z,87.62
2022-10-25T16:29:07.755Z,86.96
2022-10-25T16:31:40.178Z,87.80
2022-10-25T16:34:09.914Z,88.08
2022-10-25T16:36:39.640Z,87.14
2022-10-25T16:39:11.492Z,86.56
2022-10-25T16:41:42.804Z,85.76
2022-10-25T16:44:14.256Z,86.61
2022-10-25T16:46:46.697Z,87.73
2022-10-25T16:49:16.721Z,88.41
2022-10-25T16:51:46.586Z,88.90
2022-10-25T16:54:18.793Z,89.09
2022-10-25T16:56:51.543Z,89.59
2022-10-25T16:59:21.182Z,90.01
2022-10-25T17:01:57.070Z,90.24
2022-10-25T17:04:26.998Z,90.74
2022-10-25T17:06:56.707Z,90.59
2022-10-25T17:09:26.342Z,90.53
2022-10-25T17:11:56.045Z,90.11
2022-10-25T17:14:25.758Z,90.63
2022-10-25T17:17:02.303Z,91.59
2022-10-25T17:19:33.248Z,91.88
2022-10-25T17:22:02.911Z,92.23
2022-10-25T17:24:35.985Z,92.50
2022-10-25T17:29:55.270Z,92.33
2022-10-25T17:32:27.585Z,92.12
2022-10-25T17:34:57.310Z,92.40
2022-10-25T17:37:26.913Z,92.79
2022-10-25T17:39:56.547Z,92.32
2022-10-25T17:42:26.315Z,92.81
2022-10-25T17:44:55.944Z,92.76
2022-10-25T17:47:28.292Z,92.63
2022-10-25T17:50:01.624Z,92.99
2022-10-25T17:52:31.354Z,92.29
2022-10-25T17:55:00.961Z,91.78
2022-10-25T17:57:30.670Z,91.48
2022-10-25T18:00:00.349Z,91.95
2022-10-25T18:02:32.659Z,91.70
2022-10-25T18:05:19.342Z,91.65
2022-10-25T18:07:50.139Z,91.26
2022-10-25T18:10:20.084Z,91.30
2022-10-25T18:12:50.696Z,91.46
2022-10-25T18:15:23.172Z,90.34
2022-10-25T18:17:55.455Z,90.82
2022-10-25T18:20:25.557Z,90.54
2022-10-25T18:22:55.663Z,90.37
2022-10-25T18:25:25.402Z,91.11
2022-10-25T18:27:55.043Z,91.19
2022-10-25T18:30:25.023Z,91.55
2022-10-25T18:32:57.305Z,90.98
2022-10-25T18:35:26.922Z,91.60
2022-10-25T18:37:59.186Z,91.05
2022-10-25T18:40:29.285Z,91.22
2022-10-25T18:42:59.255Z,91.95
2022-10-25T18:45:29.783Z,91.67
2022-10-25T18:48:02.264Z,91.90
2022-10-25T18:50:31.981Z,91.79
2022-10-25T18:53:01.672Z,92.68
2022-10-25T18:55:31.612Z,92.60
2022-10-25T18:58:01.939Z,92.55
2022-10-25T19:00:31.924Z,92.52
2022-10-25T19:03:04.270Z,93.11
2022-10-25T19:05:39.896Z,92.53
2022-10-25T19:08:10.680Z,92.19
2022-10-25T19:10:41.242Z,92.37
2022-10-25T19:13:18.884Z,92.97
2022-10-25T19:15:48.654Z,92.58
2022-10-25T19:18:20.911Z,93.04
2022-10-25T19:20:50.510Z,93.12
2022-10-25T19:23:20.143Z,91.99
2022-10-25T19:25:49.884Z,91.16
2022-10-25T19:28:19.591Z,89.38
2022-10-25T19:30:49.927Z,90.85
2022-10-25T19:33:22.189Z,90.71
2022-10-25T19:35:51.881Z,90.72
2022-10-25T19:38:21.537Z,90.69
2022-10-25T19:40:51.211Z,91.61
2022-10-25T19:43:20.860Z,92.03
2022-10-25T19:45:50.569Z,91.19
2022-10-25T19:48:22.841Z,90.51
2022-10-25T19:50:52.635Z,91.33
2022-10-25T19:53:22.454Z,90.57
2022-10-25T19:56:01.064Z,91.14
2022-10-25T19:58:31.251Z,91.76
2022-10-25T20:01:05.715Z,91.60
2022-10-25T20:03:38.352Z,91.85
2022-10-25T20:06:10.682Z,92.00
2022-10-25T20:08:42.263Z,92.28
2022-10-25T20:11:14.345Z,91.91
2022-10-25T20:13:44.068Z,91.83
2022-10-25T20:16:13.925Z,91.08
2022-10-25T20:18:46.200Z,91.00
2022-10-25T20:21:17.736Z,90.72
2022-10-25T20:23:50.294Z,90.40
2022-10-25T20:26:22.588Z,91.64
2022-10-25T20:28:55.221Z,90.45
2022-10-25T20:31:25.821Z,89.83
2022-10-25T20:33:58.954Z,89.48
2022-10-25T20:36:29.101Z,88.83
2022-10-25T20:38:58.868Z,89.72
2022-10-25T20:41:30.493Z,89.43
2022-10-25T20:44:03.053Z,89.34
2022-10-25T20:46:33.658Z,89.48
2022-10-25T20:49:07.645Z,90.61
2022-10-25T20:51:38.087Z,90.85
2022-10-25T20:54:09.871Z,90.22
2022-10-25T20:56:40.180Z,90.59
2022-10-25T20:59:10.680Z,90.44
2022-10-25T21:01:40.462Z,89.84
2022-10-25T21:04:16.148Z,89.61
2022-10-25T21:06:49.244Z,89.14
2022-10-25T21:09:18.955Z,90.38
2022-10-25T21:11:48.781Z,90.31
2022-10-25T21:14:18.774Z,90.10
2022-10-25T21:16:49.672Z,89.43
2022-10-25T21:19:22.036Z,89.40
2022-10-25T21:21:51.736Z,89.53
2022-10-25T21:24:21.438Z,89.99
2022-10-25T21:26:51.730Z,89.77
2022-10-25T21:29:21.438Z,90.44
2022-10-25T21:31:51.434Z,89.83
2022-10-25T21:34:23.668Z,89.51
2022-10-25T21:36:53.375Z,89.08
2022-10-25T21:39:24.557Z,89.86
2022-10-25T21:41:54.790Z,91.04
2022-10-25T21:44:24.786Z,90.39
2022-10-25T21:46:54.513Z,89.39
2022-10-25T21:49:26.814Z,88.98
2022-10-25T21:51:56.564Z,88.70
2022-10-25T21:54:26.283Z,88.63
2022-10-25T21:56:56.084Z,89.01
2022-10-25T21:59:26.009Z,89.17
2022-10-25T22:01:55.885Z,89.17
2022-10-25T22:04:28.212Z,89.23
2022-10-25T22:06:57.885Z,88.73
2022-10-25T22:09:27.730Z,89.91
2022-10-25T22:11:57.374Z,91.18
2022-10-25T22:14:26.929Z,89.70
2022-10-25T22:16:56.747Z,88.75
2022-10-25T22:19:29.143Z,88.61
2022-10-25T22:21:58.968Z,89.16
2022-10-25T22:24:28.764Z,88.33
2022-10-25T22:26:58.515Z,88.56
2022-10-25T22:29:28.408Z,88.67
2022-10-25T22:31:58.040Z,89.36
2022-10-25T22:34:30.801Z,90.04
2022-10-25T22:37:01.559Z,89.57
2022-10-25T22:39:31.246Z,88.51
2022-10-25T22:42:00.914Z,89.11
2022-10-25T22:44:30.535Z,89.87
2022-10-25T22:47:00.164Z,89.34
2022-10-25T22:49:32.542Z,89.18
2022-10-25T22:52:02.244Z,89.42
2022-10-25T22:54:32.021Z,88.76
2022-10-25T22:57:01.664Z,90.09
2022-10-25T22:59:31.334Z,90.03
2022-10-25T23:02:01.076Z,88.89
2022-10-25T23:04:33.350Z,90.16
2022-10-25T23:07:03.014Z,89.03
2022-10-25T23:09:32.634Z,88.45
2022-10-25T23:12:02.357Z,88.07
2022-10-25T23:14:32.034Z,88.80
2022-10-25T23:17:01.725Z,89.67
2022-10-25T23:19:33.941Z,89.13
2022-10-25T23:22:03.655Z,88.70
2022-10-25T23:24:33.298Z,88.55
2022-10-25T23:27:02.963Z,88.43
2022-10-25T23:29:32.572Z,88.76
2022-10-25T23:32:02.292Z,88.91
2022-10-25T23:34:34.529Z,88.61
2022-10-25T23:37:04.164Z,89.65
2022-10-25T23:39:33.876Z,90.15
2022-10-25T23:42:03.768Z,89.90
2022-10-25T23:44:33.394Z,90.71
2022-10-25T23:47:03.013Z,90.96
2022-10-25T23:49:35.242Z,91.49
2022-10-25T23:52:04.833Z,90.54
2022-10-25T23:54:34.460Z,89.20
2022-10-25T23:57:04.057Z,89.32
2022-10-25T23:59:33.694Z,89.39
